createdAt,value
2018-11-28T00:00:52.991Z,2.97
2018-11-28T00:01:52.930Z,3.03
2018-11-28T00:02:52.878Z,2.97
2018-11-28T00:03:52.838Z,2.95
2018-11-28T00:04:52.784Z,2.84
2018-11-28T00:05:52.782Z,2.87
2018-11-28T00:06:52.699Z,2.87
2018-11-28T00:07:52.652Z,2.85
2018-11-28T00:08:52.607Z,2.99
2018-11-28T00:09:52.569Z,2.92
2018-11-28T00:10:52.534Z,2.89
2018-11-28T00:11:52.456Z,2.97
2018-11-28T00:12:52.434Z,3.00
2018-11-28T00:13:52.362Z,2.92
2018-11-28T00:14:52.334Z,2.92
2018-11-28T00:15:52.282Z,2.95
2018-11-28T00:16:52.256Z,3.06
2018-11-28T00:17:52.186Z,3.02
2018-11-28T00:18:52.138Z,3.00
2018-11-28T00:19:52.083Z,3.05
2018-11-28T00:20:52.044Z,3.00
2018-11-28T00:21:52.028Z,2.97
2018-11-28T00:22:51.952Z,2.99
2018-11-28T00:23:51.901Z,3.00
2018-11-28T00:24:51.862Z,2.99
2018-11-28T00:25:51.817Z,2.93
2018-11-28T00:26:51.799Z,3.08
2018-11-28T00:27:51.725Z,3.02
2018-11-28T00:28:51.678Z,3.13
2018-11-28T00:29:51.628Z,3.03
2018-11-28T00:30:51.577Z,2.95
2018-11-28T00:31:51.529Z,3.06
2018-11-28T00:32:51.515Z,3.02
2018-11-28T00:33:51.443Z,2.95
2018-11-28T00:34:51.400Z,3.08
2018-11-28T00:35:51.349Z,3.10
2018-11-28T00:36:51.323Z,3.02
2018-11-28T00:37:51.275Z,3.05
2018-11-28T00:38:51.214Z,3.00
2018-11-28T00:39:51.165Z,3.10
2018-11-28T00:40:51.120Z,3.11
2018-11-28T00:41:51.098Z,3.06
2018-11-28T00:42:51.046Z,3.18
2018-11-28T00:43:50.980Z,3.21
2018-11-28T00:44:50.923Z,3.23
2018-11-28T00:45:50.887Z,3.29
2018-11-28T00:46:50.868Z,3.23
2018-11-28T00:47:50.796Z,3.29
2018-11-28T00:48:50.754Z,3.40
2018-11-28T00:49:50.718Z,3.33
2018-11-28T00:50:50.674Z,3.26
2018-11-28T00:51:50.628Z,3.35
2018-11-28T00:52:50.563Z,3.39
2018-11-28T00:53:50.548Z,3.50
2018-11-28T00:54:50.470Z,3.51
2018-11-28T00:55:50.433Z,3.48
2018-11-28T00:56:50.413Z,3.47
2018-11-28T00:57:50.329Z,3.51
2018-11-28T00:58:50.294Z,3.43
2018-11-28T00:59:50.243Z,3.43
2018-11-28T01:00:50.201Z,3.50
2018-11-28T01:01:50.156Z,3.50
2018-11-28T01:02:50.123Z,3.52
2018-11-28T01:03:50.058Z,3.60
2018-11-28T01:04:50.013Z,3.60
2018-11-28T01:05:49.962Z,3.58
2018-11-28T01:06:49.935Z,3.45
2018-11-28T01:07:49.901Z,3.60
2018-11-28T01:08:49.827Z,3.52
2018-11-28T01:09:49.783Z,3.51
2018-11-28T01:10:49.732Z,3.47
2018-11-28T01:11:49.691Z,3.51
2018-11-28T01:12:49.673Z,3.45
2018-11-28T01:13:49.601Z,3.47
2018-11-28T01:14:49.547Z,3.40
2018-11-28T01:15:49.499Z,3.47
2018-11-28T01:16:49.450Z,3.47
2018-11-28T01:17:49.458Z,3.45
2018-11-28T01:18:49.389Z,3.52
2018-11-28T01:19:49.322Z,3.57
2018-11-28T01:20:49.278Z,3.50
2018-11-28T01:21:49.236Z,3.50
2018-11-28T01:22:49.176Z,3.58
2018-11-28T01:23:49.169Z,3.50
2018-11-28T01:24:49.093Z,3.54
2018-11-28T01:25:49.043Z,3.45
2018-11-28T01:26:48.990Z,3.62
2018-11-28T01:27:48.951Z,3.62
2018-11-28T01:28:48.941Z,3.58
2018-11-28T01:29:48.875Z,3.57
2018-11-28T01:30:48.821Z,3.58
2018-11-28T01:31:48.775Z,3.58
2018-11-28T01:32:48.717Z,3.60
2018-11-28T01:33:48.698Z,3.58
2018-11-28T01:34:48.629Z,3.70
2018-11-28T01:35:48.589Z,3.61
2018-11-28T01:36:48.528Z,3.69
2018-11-28T01:37:48.491Z,3.73
2018-11-28T01:38:48.474Z,3.61
2018-11-28T01:39:48.405Z,3.69
2018-11-28T01:40:48.350Z,3.65
2018-11-28T01:41:48.311Z,3.76
2018-11-28T01:42:48.269Z,3.69
2018-11-28T01:43:48.222Z,3.62
2018-11-28T01:44:48.197Z,3.69
2018-11-28T01:45:48.128Z,3.66
2018-11-28T01:46:48.070Z,3.66
2018-11-28T01:47:48.033Z,3.65
2018-11-28T01:48:47.982Z,3.70
2018-11-28T01:49:47.964Z,3.62
2018-11-28T01:50:47.902Z,3.76
2018-11-28T01:51:47.844Z,3.76
2018-11-28T01:52:47.802Z,3.73
2018-11-28T01:53:47.765Z,3.60
2018-11-28T01:54:47.730Z,3.66
2018-11-28T01:55:47.662Z,3.62
2018-11-28T01:56:47.622Z,3.68
2018-11-28T01:57:47.583Z,3.61
2018-11-28T01:58:47.518Z,3.66
2018-11-28T01:59:47.495Z,3.78
2018-11-28T02:00:47.447Z,3.69
2018-11-28T02:01:47.386Z,3.79
2018-11-28T02:02:47.345Z,3.76
2018-11-28T02:03:47.300Z,3.70
2018-11-28T02:04:47.252Z,3.61
2018-11-28T02:05:47.228Z,3.72
2018-11-28T02:06:47.166Z,3.62
2018-11-28T02:07:47.117Z,3.62
2018-11-28T02:08:47.059Z,3.66
2018-11-28T02:09:47.013Z,3.68
2018-11-28T02:10:47.008Z,3.70
2018-11-28T02:11:46.939Z,3.68
2018-11-28T02:12:46.878Z,3.60
2018-11-28T02:13:46.836Z,3.68
2018-11-28T02:14:46.802Z,3.76
2018-11-28T02:15:46.829Z,3.73
2018-11-28T02:16:46.724Z,3.78
2018-11-28T02:17:46.655Z,3.72
2018-11-28T02:18:46.605Z,3.62
2018-11-28T02:19:46.553Z,3.61
2018-11-28T02:20:46.510Z,3.72
2018-11-28T02:21:46.505Z,3.72
2018-11-28T02:22:46.421Z,3.68
2018-11-28T02:23:46.381Z,3.61
2018-11-28T02:24:46.339Z,3.73
2018-11-28T02:25:46.288Z,3.66
2018-11-28T02:26:46.254Z,3.66
2018-11-28T02:27:46.204Z,3.78
2018-11-28T02:28:46.147Z,3.61
2018-11-28T02:29:46.100Z,3.60
2018-11-28T02:30:46.063Z,3.68
2018-11-28T02:31:46.028Z,3.65
2018-11-28T02:32:45.958Z,3.70
2018-11-28T02:33:45.912Z,3.66
2018-11-28T02:34:45.871Z,3.73
2018-11-28T02:35:45.828Z,3.66
2018-11-28T02:36:45.805Z,3.70
2018-11-28T02:37:45.739Z,3.73
2018-11-28T02:38:45.680Z,3.65
2018-11-28T02:39:45.644Z,3.69
2018-11-28T02:40:45.587Z,3.75
2018-11-28T02:41:45.549Z,3.66
2018-11-28T02:42:45.528Z,3.68
2018-11-28T02:43:45.495Z,3.68
2018-11-28T02:44:45.431Z,3.70
2018-11-28T02:45:45.385Z,3.58
2018-11-28T02:46:45.333Z,3.73
2018-11-28T02:47:45.283Z,3.68
2018-11-28T02:48:45.233Z,3.69
2018-11-28T02:49:45.222Z,3.62
2018-11-28T02:50:45.128Z,3.61
2018-11-28T02:51:45.093Z,3.69
2018-11-28T02:52:45.068Z,3.61
2018-11-28T02:53:45.016Z,3.62
2018-11-28T02:54:44.950Z,3.75
2018-11-28T02:55:44.917Z,3.76
2018-11-28T02:56:44.857Z,3.78
2018-11-28T02:57:44.811Z,3.83
2018-11-28T02:58:44.793Z,3.86
2018-11-28T02:59:44.722Z,3.66
2018-11-28T03:00:44.678Z,3.84
2018-11-28T03:01:44.631Z,3.76
2018-11-28T03:02:44.577Z,3.76
2018-11-28T03:03:44.557Z,3.84
2018-11-28T03:04:44.508Z,3.88
2018-11-28T03:05:44.445Z,3.91
2018-11-28T03:06:44.399Z,3.84
2018-11-28T03:07:44.362Z,3.88
2018-11-28T03:08:44.364Z,3.80
2018-11-28T03:09:44.261Z,3.76
2018-11-28T03:10:44.208Z,3.79
2018-11-28T03:11:44.168Z,3.62
2018-11-28T03:12:44.120Z,3.66
2018-11-28T03:13:44.072Z,3.70
2018-11-28T03:14:44.054Z,3.87
2018-11-28T03:15:43.996Z,3.90
2018-11-28T03:16:43.944Z,3.79
2018-11-28T03:17:43.891Z,3.84
2018-11-28T03:18:43.856Z,3.84
2018-11-28T03:19:43.827Z,3.88
2018-11-28T03:20:43.759Z,3.93
2018-11-28T03:21:43.708Z,3.88
2018-11-28T03:22:43.659Z,3.86
2018-11-28T03:23:43.612Z,3.86
2018-11-28T03:24:43.595Z,3.91
2018-11-28T03:25:43.517Z,3.87
2018-11-28T03:26:43.481Z,3.84
2018-11-28T03:27:43.435Z,3.79
2018-11-28T03:28:43.391Z,3.83
2018-11-28T03:29:43.347Z,3.86
2018-11-28T03:30:43.342Z,3.86
2018-11-28T03:31:43.245Z,3.87
2018-11-28T03:32:43.214Z,3.80
2018-11-28T03:33:43.159Z,3.78
2018-11-28T03:34:45.606Z,3.76
2018-11-28T03:35:43.091Z,3.73
2018-11-28T03:36:43.027Z,3.76
2018-11-28T03:37:42.970Z,3.83
2018-11-28T03:38:42.931Z,3.80
2018-11-28T03:39:42.883Z,3.90
2018-11-28T03:40:42.866Z,3.80
2018-11-28T03:41:42.790Z,3.90
2018-11-28T03:42:42.749Z,3.88
2018-11-28T03:43:42.700Z,3.84
2018-11-28T03:44:42.646Z,3.70
2018-11-28T03:45:42.639Z,3.78
2018-11-28T03:46:42.569Z,3.83
2018-11-28T03:47:42.530Z,3.86
2018-11-28T03:48:42.463Z,3.93
2018-11-28T03:49:42.428Z,3.75
2018-11-28T03:50:42.409Z,3.78
2018-11-28T03:51:42.339Z,3.76
2018-11-28T03:52:42.332Z,3.91
2018-11-28T03:53:42.244Z,3.84
2018-11-28T03:54:42.201Z,3.88
2018-11-28T03:55:42.169Z,3.93
2018-11-28T03:56:42.101Z,3.93
2018-11-28T03:57:42.053Z,3.91
2018-11-28T03:58:42.050Z,3.90
2018-11-28T03:59:41.967Z,3.86
2018-11-28T04:00:41.949Z,3.90
2018-11-28T04:01:41.878Z,3.88
2018-11-28T04:02:41.822Z,4.00
2018-11-28T04:03:41.813Z,3.90
2018-11-28T04:04:41.740Z,3.94
2018-11-28T04:05:41.701Z,3.88
2018-11-28T04:06:41.636Z,3.86
2018-11-28T04:07:41.599Z,3.76
2018-11-28T04:08:41.551Z,3.86
2018-11-28T04:09:41.533Z,3.97
2018-11-28T04:10:41.492Z,3.88
2018-11-28T04:11:41.419Z,3.90
2018-11-28T04:12:41.379Z,3.96
2018-11-28T04:13:41.327Z,3.93
2018-11-28T04:14:41.274Z,3.93
2018-11-28T04:15:41.256Z,3.94
2018-11-28T04:16:41.194Z,3.93
2018-11-28T04:17:41.139Z,3.91
2018-11-28T04:18:41.102Z,3.94
2018-11-28T04:19:41.062Z,4.02
2018-11-28T04:20:41.027Z,4.08
2018-11-28T04:21:40.996Z,3.97
2018-11-28T04:22:40.918Z,4.02
2018-11-28T04:23:40.882Z,4.00
2018-11-28T04:24:40.839Z,4.02
2018-11-28T04:25:40.810Z,4.04
2018-11-28T04:26:40.735Z,4.04
2018-11-28T04:27:40.714Z,4.02
2018-11-28T04:28:40.647Z,3.98
2018-11-28T04:29:40.619Z,3.94
2018-11-28T04:30:40.553Z,4.05
2018-11-28T04:31:40.538Z,4.00
2018-11-28T04:32:40.468Z,4.02
2018-11-28T04:33:40.415Z,4.04
2018-11-28T04:34:40.380Z,3.90
2018-11-28T04:35:40.314Z,4.04
2018-11-28T04:36:40.298Z,3.94
2018-11-28T04:37:40.233Z,4.00
2018-11-28T04:38:40.194Z,4.04
2018-11-28T04:39:40.140Z,4.16
2018-11-28T04:40:40.092Z,4.14
2018-11-28T04:41:40.112Z,4.14
2018-11-28T04:42:40.011Z,4.20
2018-11-28T04:43:39.965Z,4.12
2018-11-28T04:44:39.917Z,4.23
2018-11-28T04:45:39.878Z,4.20
2018-11-28T04:46:39.845Z,4.20
2018-11-28T04:47:39.771Z,4.18
2018-11-28T04:48:39.735Z,4.14
2018-11-28T04:49:39.679Z,4.22
2018-11-28T04:50:39.640Z,4.16
2018-11-28T04:51:39.625Z,4.18
2018-11-28T04:52:39.544Z,4.23
2018-11-28T04:53:39.496Z,4.30
2018-11-28T04:54:39.458Z,4.30
2018-11-28T04:55:39.412Z,4.27
2018-11-28T04:56:39.384Z,4.23
2018-11-28T04:57:39.359Z,4.15
2018-11-28T04:58:39.265Z,4.20
2018-11-28T04:59:39.234Z,4.18
2018-11-28T05:00:39.180Z,4.27
2018-11-28T05:01:39.130Z,4.16
2018-11-28T05:02:39.094Z,4.23
2018-11-28T05:03:39.081Z,4.27
2018-11-28T05:04:39.012Z,4.29
2018-11-28T05:05:38.981Z,4.26
2018-11-28T05:06:38.913Z,4.33
2018-11-28T05:07:38.888Z,4.30
2018-11-28T05:08:38.816Z,4.26
2018-11-28T05:09:38.780Z,4.24
2018-11-28T05:10:38.735Z,4.32
2018-11-28T05:11:38.684Z,4.15
2018-11-28T05:12:38.635Z,4.29
2018-11-28T05:13:38.618Z,4.29
2018-11-28T05:14:38.564Z,4.18
2018-11-28T05:15:38.505Z,4.30
2018-11-28T05:16:38.460Z,4.32
2018-11-28T05:17:38.431Z,4.27
2018-11-28T05:18:38.358Z,4.26
2018-11-28T05:19:38.319Z,4.26
2018-11-28T05:20:38.263Z,4.15
2018-11-28T05:21:38.234Z,4.12
2018-11-28T05:22:38.203Z,4.33
2018-11-28T05:23:38.141Z,4.26
2018-11-28T05:24:38.111Z,4.29
2018-11-28T05:25:38.046Z,4.27
2018-11-28T05:26:38.021Z,4.36
2018-11-28T05:27:37.985Z,4.27
2018-11-28T05:28:37.914Z,4.36
2018-11-28T05:29:37.873Z,4.40
2018-11-28T05:30:37.813Z,4.26
2018-11-28T05:31:37.779Z,4.34
2018-11-28T05:32:37.741Z,4.30
2018-11-28T05:33:37.695Z,4.27
2018-11-28T05:34:37.652Z,4.34
2018-11-28T05:35:37.589Z,4.33
2018-11-28T05:36:37.553Z,4.37
2018-11-28T05:37:37.539Z,4.30
2018-11-28T05:38:37.492Z,4.30
2018-11-28T05:39:37.407Z,4.24
2018-11-28T05:40:37.380Z,4.24
2018-11-28T05:41:37.318Z,4.27
2018-11-28T05:42:37.298Z,4.29
2018-11-28T05:43:37.224Z,4.29
2018-11-28T05:44:37.174Z,4.42
2018-11-28T05:45:37.127Z,4.34
2018-11-28T05:46:37.085Z,4.45
2018-11-28T05:47:37.063Z,4.42
2018-11-28T05:48:36.994Z,4.42
2018-11-28T05:49:36.951Z,4.45
2018-11-28T05:50:36.901Z,4.58
2018-11-28T05:51:36.881Z,4.55
2018-11-28T05:52:36.849Z,4.51
2018-11-28T05:53:36.757Z,4.54
2018-11-28T05:54:36.722Z,4.48
2018-11-28T05:55:36.687Z,4.51
2018-11-28T05:56:36.650Z,4.48
2018-11-28T05:57:36.579Z,4.50
2018-11-28T05:58:36.564Z,4.54
2018-11-28T05:59:36.509Z,4.52
2018-11-28T06:00:36.454Z,4.55
2018-11-28T06:01:36.439Z,4.58
2018-11-28T06:02:36.369Z,4.60
2018-11-28T06:03:36.319Z,4.54
2018-11-28T06:04:36.264Z,4.59
2018-11-28T06:05:36.227Z,4.55
2018-11-28T06:06:36.205Z,4.58
2018-11-28T06:07:36.153Z,4.58
2018-11-28T06:08:36.089Z,4.55
2018-11-28T06:09:36.043Z,4.63
2018-11-28T06:10:35.998Z,4.69
2018-11-28T06:11:35.981Z,4.72
2018-11-28T06:12:35.916Z,4.65
2018-11-28T06:13:35.912Z,4.69
2018-11-28T06:14:35.814Z,4.72
2018-11-28T06:15:35.782Z,4.58
2018-11-28T06:16:35.753Z,4.60
2018-11-28T06:17:35.709Z,4.69
2018-11-28T06:18:35.644Z,4.63
2018-11-28T06:19:35.604Z,4.65
2018-11-28T06:20:35.555Z,4.70
2018-11-28T06:21:35.540Z,4.73
2018-11-28T06:22:35.456Z,4.60
2018-11-28T06:23:35.412Z,4.73
2018-11-28T06:24:35.357Z,4.63
2018-11-28T06:25:35.315Z,4.70
2018-11-28T06:26:35.299Z,4.65
2018-11-28T06:27:35.229Z,4.72
2018-11-28T06:28:35.178Z,4.75
2018-11-28T06:29:35.129Z,4.73
2018-11-28T06:30:35.099Z,4.58
2018-11-28T06:31:35.092Z,4.72
2018-11-28T06:32:44.231Z,4.70
2018-11-28T06:33:34.983Z,4.73
2018-11-28T06:34:34.905Z,4.72
2018-11-28T06:35:34.898Z,4.60
2018-11-28T06:36:34.835Z,4.65
2018-11-28T06:37:34.773Z,4.66
2018-11-28T06:38:34.757Z,4.72
2018-11-28T06:39:34.700Z,4.66
2018-11-28T06:40:34.624Z,4.66
2018-11-28T06:41:34.614Z,4.69
2018-11-28T06:42:34.545Z,4.69
2018-11-28T06:43:34.501Z,4.73
2018-11-28T06:44:34.475Z,4.75
2018-11-28T06:45:34.438Z,4.72
2018-11-28T06:46:34.382Z,4.72
2018-11-28T06:47:34.321Z,4.66
2018-11-28T06:48:34.271Z,4.70
2018-11-28T06:49:34.233Z,4.77
2018-11-28T06:50:34.218Z,4.70
2018-11-28T06:51:34.139Z,4.58
2018-11-28T06:52:34.086Z,4.65
2018-11-28T06:53:34.050Z,4.65
2018-11-28T06:54:34.027Z,4.54
2018-11-28T06:55:33.974Z,4.60
2018-11-28T06:56:33.917Z,4.72
2018-11-28T06:57:33.866Z,4.70
2018-11-28T06:58:33.811Z,4.73
2018-11-28T06:59:33.766Z,4.62
2018-11-28T07:00:33.746Z,4.67
2018-11-28T07:01:33.696Z,4.65
2018-11-28T07:02:33.650Z,4.60
2018-11-28T07:03:33.584Z,4.63
2018-11-28T07:04:33.543Z,4.72
2018-11-28T07:05:33.528Z,4.63
2018-11-28T07:06:33.462Z,4.69
2018-11-28T07:07:33.399Z,4.66
2018-11-28T07:08:33.368Z,4.70
2018-11-28T07:09:33.314Z,4.73
2018-11-28T07:10:33.307Z,4.73
2018-11-28T07:11:33.240Z,4.69
2018-11-28T07:12:33.207Z,4.75
2018-11-28T07:13:33.138Z,4.67
2018-11-28T07:14:33.112Z,4.69
2018-11-28T07:15:33.076Z,4.69
2018-11-28T07:16:33.012Z,4.75
2018-11-28T07:17:32.960Z,4.94
2018-11-28T07:18:32.910Z,4.94
2018-11-28T07:19:32.877Z,4.88
2018-11-28T07:20:32.935Z,4.92
2018-11-28T07:21:32.818Z,4.96
2018-11-28T07:22:32.739Z,4.91
2018-11-28T07:23:32.696Z,4.97
2018-11-28T07:24:32.655Z,4.86
2018-11-28T07:25:32.598Z,4.86
2018-11-28T07:26:32.569Z,4.91
2018-11-28T07:27:32.518Z,4.89
2018-11-28T07:28:32.455Z,4.92
2018-11-28T07:29:32.411Z,4.91
2018-11-28T07:30:37.532Z,4.78
2018-11-28T07:31:32.316Z,4.84
2018-11-28T07:32:32.274Z,4.86
2018-11-28T07:33:32.259Z,4.91
2018-11-28T07:34:32.214Z,4.84
2018-11-28T07:35:32.145Z,4.94
2018-11-28T07:36:32.079Z,4.94
2018-11-28T07:37:32.047Z,4.86
2018-11-28T07:38:31.988Z,4.94
2018-11-28T07:39:31.973Z,5.00
2018-11-28T07:40:31.940Z,4.92
2018-11-28T07:41:31.872Z,4.86
2018-11-28T07:42:31.838Z,4.86
2018-11-28T07:43:31.840Z,4.99
2018-11-28T07:44:31.758Z,4.89
2018-11-28T07:45:31.678Z,5.04
2018-11-28T07:46:31.640Z,5.02
2018-11-28T07:47:31.670Z,5.13
2018-11-28T07:48:31.561Z,5.06
2018-11-28T07:49:31.533Z,5.18
2018-11-28T07:50:31.456Z,5.18
2018-11-28T07:51:31.448Z,5.21
2018-11-28T07:52:31.384Z,5.21
2018-11-28T07:53:31.350Z,5.15
2018-11-28T07:54:31.293Z,5.25
2018-11-28T07:55:31.284Z,5.25
2018-11-28T07:56:31.188Z,5.22
2018-11-28T07:57:31.143Z,5.18
2018-11-28T07:58:31.110Z,5.18
2018-11-28T07:59:31.086Z,5.28
2018-11-28T08:00:31.084Z,5.28
2018-11-28T08:01:30.975Z,5.39
2018-11-28T08:02:30.933Z,5.31
2018-11-28T08:03:30.869Z,5.43
2018-11-28T08:04:30.939Z,5.35
2018-11-28T08:05:30.809Z,5.45
2018-11-28T08:06:30.751Z,5.40
2018-11-28T08:07:30.705Z,5.48
2018-11-28T08:08:30.654Z,5.53
2018-11-28T08:09:30.620Z,5.56
2018-11-28T08:10:30.618Z,5.56
2018-11-28T08:11:30.517Z,5.53
2018-11-28T08:12:30.485Z,5.49
2018-11-28T08:13:30.428Z,5.51
2018-11-28T08:14:30.448Z,5.58
2018-11-28T08:15:30.340Z,5.49
2018-11-28T08:16:30.329Z,5.56
2018-11-28T08:17:30.247Z,5.54
2018-11-28T08:18:30.205Z,5.68
2018-11-28T08:19:30.197Z,5.72
2018-11-28T08:20:30.120Z,5.74
2018-11-28T08:21:30.059Z,5.67
2018-11-28T08:22:30.033Z,5.72
2018-11-28T08:23:30.022Z,5.79
2018-11-28T08:24:29.953Z,5.78
2018-11-28T08:25:29.907Z,5.65
2018-11-28T08:26:29.847Z,5.71
2018-11-28T08:27:29.802Z,5.74
2018-11-28T08:28:29.795Z,5.81
2018-11-28T08:29:29.713Z,5.79
2018-11-28T08:30:29.677Z,5.75
2018-11-28T08:31:29.629Z,5.85
2018-11-28T08:32:29.570Z,5.94
2018-11-28T08:33:29.531Z,5.90
2018-11-28T08:34:29.518Z,5.97
2018-11-28T08:35:29.455Z,5.90
2018-11-28T08:36:29.403Z,5.94
2018-11-28T08:37:29.384Z,5.93
2018-11-28T08:38:29.341Z,5.99
2018-11-28T08:39:29.271Z,5.94
2018-11-28T08:40:29.228Z,5.93
2018-11-28T08:41:29.196Z,5.89
2018-11-28T08:42:29.144Z,5.89
2018-11-28T08:43:29.109Z,5.99
2018-11-28T08:44:29.090Z,5.99
2018-11-28T08:45:28.992Z,5.97
2018-11-28T08:46:28.949Z,5.94
2018-11-28T08:47:28.915Z,5.93
2018-11-28T08:48:28.924Z,6.04
2018-11-28T08:49:28.822Z,6.08
2018-11-28T08:50:28.789Z,5.99
2018-11-28T08:51:28.726Z,6.04
2018-11-28T08:52:28.699Z,6.04
2018-11-28T08:53:28.653Z,6.03
2018-11-28T08:54:28.634Z,6.08
2018-11-28T08:55:28.559Z,5.99
2018-11-28T08:56:28.518Z,6.04
2018-11-28T08:57:28.469Z,6.06
2018-11-28T08:58:28.434Z,6.04
2018-11-28T08:59:28.406Z,6.06
2018-11-28T09:00:28.359Z,6.12
2018-11-28T09:01:28.287Z,6.06
2018-11-28T09:02:28.252Z,6.12
2018-11-28T09:03:28.231Z,5.97
2018-11-28T09:04:28.188Z,6.01
2018-11-28T09:05:28.119Z,6.17
2018-11-28T09:06:28.094Z,6.14
2018-11-28T09:07:28.033Z,6.14
2018-11-28T09:08:28.004Z,6.17
2018-11-28T09:09:27.953Z,6.17
2018-11-28T09:10:27.924Z,6.12
2018-11-28T09:11:27.857Z,6.14
2018-11-28T09:12:27.802Z,6.14
2018-11-28T09:13:27.768Z,6.15
2018-11-28T09:14:27.749Z,6.14
2018-11-28T09:15:27.686Z,6.14
2018-11-28T09:16:27.651Z,6.14
2018-11-28T09:17:27.582Z,6.06
2018-11-28T09:18:27.531Z,6.15
2018-11-28T09:19:27.486Z,6.09
2018-11-28T09:20:27.488Z,6.15
2018-11-28T09:21:27.409Z,6.18
2018-11-28T09:22:27.366Z,6.17
2018-11-28T09:23:27.316Z,6.14
2018-11-28T09:24:27.338Z,6.19
2018-11-28T09:25:27.233Z,6.11
2018-11-28T09:26:27.232Z,6.17
2018-11-28T09:27:27.180Z,6.12
2018-11-28T09:28:27.117Z,6.18
2018-11-28T09:29:27.052Z,6.15
2018-11-28T09:30:27.063Z,6.19
2018-11-28T09:31:27.024Z,6.15
2018-11-28T09:32:26.930Z,6.09
2018-11-28T09:33:26.883Z,6.14
2018-11-28T09:34:26.858Z,6.19
2018-11-28T09:35:26.796Z,6.25
2018-11-28T09:36:27.714Z,6.21
2018-11-28T09:37:26.716Z,6.33
2018-11-28T09:38:26.666Z,6.34
2018-11-28T09:39:26.647Z,6.30
2018-11-28T09:40:26.622Z,6.31
2018-11-28T09:41:26.537Z,6.31
2018-11-28T09:42:26.501Z,6.36
2018-11-28T09:43:26.496Z,6.31
2018-11-28T09:44:26.506Z,6.31
2018-11-28T09:45:26.355Z,6.37
2018-11-28T09:46:26.341Z,6.31
2018-11-28T09:47:26.278Z,6.41
2018-11-28T09:48:26.215Z,6.43
2018-11-28T09:49:26.213Z,6.52
2018-11-28T09:50:26.219Z,6.44
2018-11-28T09:51:26.090Z,6.61
2018-11-28T09:52:26.110Z,6.56
2018-11-28T09:53:26.007Z,6.49
2018-11-28T09:54:25.950Z,6.54
2018-11-28T09:55:26.008Z,6.55
2018-11-28T09:56:25.872Z,6.56
2018-11-28T09:57:25.928Z,6.51
2018-11-28T09:58:25.834Z,6.64
2018-11-28T09:59:25.735Z,6.62
2018-11-28T10:00:25.714Z,6.67
2018-11-28T10:01:25.659Z,6.66
2018-11-28T10:02:25.631Z,6.71
2018-11-28T10:03:25.820Z,6.64
2018-11-28T10:04:25.645Z,6.73
2018-11-28T10:05:25.479Z,6.66
2018-11-28T10:06:25.427Z,6.73
2018-11-28T10:07:25.422Z,6.80
2018-11-28T10:08:25.405Z,6.85
2018-11-28T10:09:25.300Z,6.81
2018-11-28T10:10:25.286Z,6.89
2018-11-28T10:11:25.222Z,6.80
2018-11-28T10:12:25.215Z,6.94
2018-11-28T10:13:25.129Z,6.91
2018-11-28T10:14:25.067Z,6.89
2018-11-28T10:15:25.071Z,6.84
2018-11-28T10:16:25.012Z,6.94
2018-11-28T10:17:24.965Z,6.89
2018-11-28T10:18:24.940Z,7.03
2018-11-28T10:19:24.857Z,6.88
2018-11-28T10:20:24.857Z,6.88
2018-11-28T10:21:24.792Z,6.91
2018-11-28T10:22:24.728Z,6.89
2018-11-28T10:23:24.716Z,7.06
2018-11-28T10:24:24.681Z,6.97
2018-11-28T10:25:24.621Z,6.95
2018-11-28T10:26:24.574Z,6.94
2018-11-28T10:27:24.506Z,6.98
2018-11-28T10:28:24.476Z,6.98
2018-11-28T10:29:24.447Z,6.92
2018-11-28T10:30:24.429Z,6.97
2018-11-28T10:31:33.816Z,6.91
2018-11-28T10:32:33.333Z,6.99
2018-11-28T10:33:33.342Z,6.99
2018-11-28T10:34:33.909Z,6.97
2018-11-28T10:35:33.443Z,6.98
2018-11-28T10:36:33.430Z,6.99
2018-11-28T10:37:33.484Z,7.02
2018-11-28T10:38:33.452Z,7.02
2018-11-28T10:39:32.996Z,6.95
2018-11-28T10:40:32.537Z,7.06
2018-11-28T10:41:33.050Z,7.02
2018-11-28T10:42:24.093Z,6.97
2018-11-28T10:43:23.821Z,6.99
2018-11-28T10:44:23.765Z,7.03
2018-11-28T10:45:23.767Z,6.92
2018-11-28T10:46:23.670Z,6.95
2018-11-28T10:47:23.626Z,7.06
2018-11-28T10:48:23.580Z,6.95
2018-11-28T10:49:23.557Z,7.05
2018-11-28T10:50:23.523Z,6.98
2018-11-28T10:51:23.442Z,7.02
2018-11-28T10:52:23.427Z,6.97
2018-11-28T10:53:23.379Z,6.97
2018-11-28T10:54:23.312Z,7.03
2018-11-28T10:55:23.311Z,6.99
2018-11-28T10:56:23.247Z,6.91
2018-11-28T10:57:23.193Z,7.07
2018-11-28T10:58:23.153Z,7.15
2018-11-28T10:59:23.109Z,7.12
2018-11-28T11:00:23.091Z,7.06
2018-11-28T11:01:23.041Z,7.12
2018-11-28T11:02:22.986Z,7.07
2018-11-28T11:03:22.922Z,7.10
2018-11-28T11:04:23.139Z,7.13
2018-11-28T11:05:22.878Z,7.10
2018-11-28T11:06:22.819Z,7.17
2018-11-28T11:07:22.774Z,7.21
2018-11-28T11:08:22.712Z,7.21
2018-11-28T11:09:32.119Z,7.20
2018-11-28T11:10:22.661Z,7.25
2018-11-28T11:11:22.588Z,7.24
2018-11-28T11:12:22.555Z,7.27
2018-11-28T11:13:22.511Z,7.27
2018-11-28T11:14:22.471Z,7.31
2018-11-28T11:15:22.428Z,7.28
2018-11-28T11:16:31.696Z,7.31
2018-11-28T11:17:22.322Z,7.40
2018-11-28T11:18:22.284Z,7.31
2018-11-28T11:19:22.406Z,7.40
2018-11-28T11:20:22.246Z,7.43
2018-11-28T11:21:22.264Z,7.32
2018-11-28T11:22:22.119Z,7.30
2018-11-28T11:23:22.134Z,7.40
2018-11-28T11:24:22.019Z,7.40
2018-11-28T11:25:22.002Z,7.40
2018-11-28T11:26:21.938Z,7.35
2018-11-28T11:27:21.916Z,7.40
2018-11-28T11:28:21.885Z,7.45
2018-11-28T11:29:21.821Z,7.39
2018-11-28T11:30:21.787Z,7.32
2018-11-28T11:31:21.733Z,7.40
2018-11-28T11:32:21.789Z,7.40
2018-11-28T11:33:21.648Z,7.42
2018-11-28T11:34:21.620Z,7.42
2018-11-28T11:35:21.612Z,7.45
2018-11-28T11:36:21.504Z,7.43
2018-11-28T11:37:21.471Z,7.43
2018-11-28T11:38:21.431Z,7.42
2018-11-28T11:39:30.202Z,7.40
2018-11-28T11:40:21.359Z,7.39
2018-11-28T11:41:30.730Z,7.43
2018-11-28T11:42:21.290Z,7.37
2018-11-28T11:43:21.207Z,7.55
2018-11-28T11:44:21.326Z,7.43
2018-11-28T11:45:21.135Z,7.39
2018-11-28T11:46:21.067Z,7.37
2018-11-28T11:47:21.043Z,7.35
2018-11-28T11:48:21.014Z,7.40
2018-11-28T11:49:20.989Z,7.45
2018-11-28T11:50:20.921Z,7.42
2018-11-28T11:51:20.896Z,7.43
2018-11-28T11:52:30.252Z,7.35
2018-11-28T11:53:20.771Z,7.39
2018-11-28T11:54:20.758Z,7.37
2018-11-28T11:55:20.714Z,7.37
2018-11-28T11:56:20.663Z,7.37
2018-11-28T11:57:20.578Z,7.43
2018-11-28T11:58:20.543Z,7.43
2018-11-28T11:59:30.199Z,7.42
2018-11-28T12:00:20.453Z,7.40
2018-11-28T12:01:30.250Z,7.37
2018-11-28T12:02:29.999Z,7.39
2018-11-28T12:03:29.780Z,7.39
2018-11-28T12:04:29.370Z,7.40
2018-11-28T12:05:29.406Z,7.42
2018-11-28T12:06:20.203Z,7.35
2018-11-28T12:07:20.178Z,7.49
2018-11-28T12:08:20.136Z,7.49
2018-11-28T12:09:20.086Z,7.52
2018-11-28T12:10:20.033Z,7.60
2018-11-28T12:11:19.975Z,7.53
2018-11-28T12:12:19.939Z,7.53
2018-11-28T12:13:19.897Z,7.58
2018-11-28T12:14:19.897Z,7.55
2018-11-28T12:15:19.819Z,7.61
2018-11-28T12:16:21.688Z,7.58
2018-11-28T12:17:19.711Z,7.74
2018-11-28T12:18:19.706Z,7.57
2018-11-28T12:19:19.691Z,7.67
2018-11-28T12:20:19.620Z,7.58
2018-11-28T12:21:19.548Z,7.71
2018-11-28T12:22:19.521Z,7.72
2018-11-28T12:23:19.461Z,7.72
2018-11-28T12:24:19.480Z,7.69
2018-11-28T12:25:19.414Z,7.74
2018-11-28T12:26:19.386Z,7.75
2018-11-28T12:27:19.318Z,7.71
2018-11-28T12:28:19.259Z,7.80
2018-11-28T12:29:19.205Z,7.75
2018-11-28T12:30:19.172Z,7.67
2018-11-28T12:31:19.121Z,7.69
2018-11-28T12:32:19.083Z,7.69
2018-11-28T12:33:19.061Z,7.83
2018-11-28T12:34:18.992Z,7.86
2018-11-28T12:35:18.962Z,7.74
2018-11-28T12:36:18.914Z,7.87
2018-11-28T12:37:18.866Z,7.85
2018-11-28T12:38:18.820Z,7.83
2018-11-28T12:40:18.879Z,7.80
2018-11-28T12:41:18.737Z,7.83
2018-11-28T12:42:18.644Z,7.83
2018-11-28T12:43:18.632Z,7.89
2018-11-28T12:44:18.580Z,7.90
2018-11-28T12:45:18.521Z,7.89
2018-11-28T12:46:18.532Z,7.90
2018-11-28T12:47:18.440Z,7.83
2018-11-28T12:48:18.409Z,7.92
2018-11-28T12:49:18.335Z,7.90
2018-11-28T12:50:18.306Z,7.97
2018-11-28T12:51:18.266Z,7.98
2018-11-28T12:52:18.222Z,7.95
2018-11-28T12:53:18.176Z,7.92
2018-11-28T12:54:18.182Z,7.95
2018-11-28T12:55:18.079Z,7.93
2018-11-28T12:56:18.034Z,7.93
2018-11-28T12:57:18.003Z,7.79
2018-11-28T12:58:17.961Z,7.77
2018-11-28T12:59:17.941Z,7.75
2018-11-28T13:00:17.852Z,7.79
2018-11-28T13:01:17.822Z,7.82
2018-11-28T13:02:17.825Z,7.89
2018-11-28T13:03:17.777Z,7.86
2018-11-28T13:04:17.707Z,7.89
2018-11-28T13:05:17.665Z,7.83
2018-11-28T13:06:17.605Z,7.85
2018-11-28T13:07:17.600Z,7.82
2018-11-28T13:08:17.553Z,7.97
2018-11-28T13:09:26.875Z,7.83
2018-11-28T13:10:17.447Z,7.83
2018-11-28T13:11:17.381Z,7.79
2018-11-28T13:12:17.351Z,7.79
2018-11-28T13:13:18.141Z,7.86
2018-11-28T13:14:17.264Z,7.93
2018-11-28T13:15:17.218Z,7.89
2018-11-28T13:16:17.179Z,7.92
2018-11-28T13:17:17.170Z,7.93
2018-11-28T13:18:17.109Z,7.97
2018-11-28T13:19:17.051Z,7.87